Terminal Aerodrome Forecast
Issued by NWS

Current Version | Previous Version | Graphics & Text | Print | Product List | Glossary On
Versions: 1 2 3 4 5 6 7 8 9 10 11 12 13 14 15 16 17 18 19 20 21 22 23 24 25
000
FTUS41 KILN 162300
TAFLUK
TAF
KLUK 162320Z 1700/1724 19006KT P6SM VCTS BKN040CB
      TEMPO 1700/1702 VRB08G15KT 5SM -SHRA OVC025
     FM170200 19004KT 6SM BR VCSH OVC025
      TEMPO 1702/1705 VRB08G15KT 5SM -SHRA OVC015
     FM170700 23004KT 2SM BR OVC009
     FM171300 31004KT P6SM BKN025
     FM171500 35006KT P6SM SKC=

USA.gov is the U.S. government's official web portal to all federal, state and local government web resources and services.